sensor_id;sensor_type;location;lat;lon;timestamp;P1;durP1;ratioP1;P2;durP2;ratioP2
38053;SDS011;23859;50.672;7.164;2023-11-21T00:01:54;982.75;;;915.15;;
38053;SDS011;23859;50.672;7.164;2023-11-21T00:04:20;946.42;;;882.42;;
38053;SDS011;23859;50.672;7.164;2023-11-21T00:06:46;953.53;;;888.17;;
38053;SDS011;23859;50.672;7.164;2023-11-21T00:09:13;973.95;;;907.83;;
38053;SDS011;23859;50.672;7.164;2023-11-21T00:11:43;957.55;;;891.72;;
38053;SDS011;23859;50.672;7.164;2023-11-21T00:14:09;944.42;;;878.42;;
38053;SDS011;23859;50.672;7.164;2023-11-21T00:16:36;989.45;;;919.20;;
38053;SDS011;23859;50.672;7.164;2023-11-21T00:19:02;973.15;;;904.63;;
38053;SDS011;23859;50.672;7.164;2023-11-21T00:21:28;991.50;;;921.90;;
38053;SDS011;23859;50.672;7.164;2023-11-21T00:23:54;971.00;;;904.63;;
38053;SDS011;23859;50.672;7.164;2023-11-21T00:26:21;981.60;;;912.75;;
38053;SDS011;23859;50.672;7.164;2023-11-21T00:28:47;1024.85;;;952.05;;
38053;SDS011;23859;50.672;7.164;2023-11-21T00:31:13;990.95;;;921.38;;
38053;SDS011;23859;50.672;7.164;2023-11-21T00:33:39;990.47;;;921.30;;
38053;SDS011;23859;50.672;7.164;2023-11-21T00:36:05;952.88;;;887.80;;
38053;SDS011;23859;50.672;7.164;2023-11-21T00:38:35;957.13;;;892.50;;
38053;SDS011;23859;50.672;7.164;2023-11-21T00:41:01;951.65;;;887.70;;
38053;SDS011;23859;50.672;7.164;2023-11-21T00:43:28;966.35;;;897.00;;
38053;SDS011;23859;50.672;7.164;2023-11-21T00:45:54;959.65;;;893.00;;
38053;SDS011;23859;50.672;7.164;2023-11-21T00:48:20;935.03;;;871.10;;
38053;SDS011;23859;50.672;7.164;2023-11-21T00:50:47;945.33;;;881.05;;
38053;SDS011;23859;50.672;7.164;2023-11-21T00:53:13;949.72;;;885.13;;
38053;SDS011;23859;50.672;7.164;2023-11-21T00:55:39;920.33;;;858.35;;
38053;SDS011;23859;50.672;7.164;2023-11-21T00:58:05;931.92;;;866.90;;
38053;SDS011;23859;50.672;7.164;2023-11-21T01:00:32;937.13;;;872.97;;
38053;SDS011;23859;50.672;7.164;2023-11-21T01:02:59;944.22;;;879.85;;
38053;SDS011;23859;50.672;7.164;2023-11-21T01:05:25;949.55;;;885.05;;
38053;SDS011;23859;50.672;7.164;2023-11-21T01:07:51;947.03;;;881.65;;
38053;SDS011;23859;50.672;7.164;2023-11-21T01:10:17;939.17;;;875.20;;
38053;SDS011;23859;50.672;7.164;2023-11-21T01:12:44;964.05;;;897.55;;
38053;SDS011;23859;50.672;7.164;2023-11-21T01:15:10;970.53;;;903.90;;
38053;SDS011;23859;50.672;7.164;2023-11-21T01:17:37;951.33;;;884.88;;
38053;SDS011;23859;50.672;7.164;2023-11-21T01:20:03;958.58;;;892.65;;
38053;SDS011;23859;50.672;7.164;2023-11-21T01:22:37;988.47;;;917.25;;
38053;SDS011;23859;50.672;7.164;2023-11-21T01:25:03;972.72;;;906.10;;
38053;SDS011;23859;50.672;7.164;2023-11-21T01:27:32;981.55;;;913.42;;
38053;SDS011;23859;50.672;7.164;2023-11-21T01:29:59;988.17;;;919.42;;
38053;SDS011;23859;50.672;7.164;2023-11-21T01:32:26;997.38;;;926.55;;
38053;SDS011;23859;50.672;7.164;2023-11-21T01:34:53;979.42;;;910.38;;
38053;SDS011;23859;50.672;7.164;2023-11-21T01:37:20;969.95;;;901.83;;
38053;SDS011;23859;50.672;7.164;2023-11-21T01:39:46;986.92;;;917.03;;
38053;SDS011;23859;50.672;7.164;2023-11-21T01:42:13;995.42;;;925.20;;
38053;SDS011;23859;50.672;7.164;2023-11-21T01:44:39;984.33;;;916.20;;
38053;SDS011;23859;50.672;7.164;2023-11-21T01:47:06;941.42;;;876.53;;
38053;SDS011;23859;50.672;7.164;2023-11-21T01:49:33;1003.53;;;933.20;;
38053;SDS011;23859;50.672;7.164;2023-11-21T01:52:00;989.72;;;919.65;;
38053;SDS011;23859;50.672;7.164;2023-11-21T01:54:29;994.10;;;921.95;;
38053;SDS011;23859;50.672;7.164;2023-11-21T01:56:56;970.78;;;903.83;;
38053;SDS011;23859;50.672;7.164;2023-11-21T01:59:28;969.95;;;903.17;;
38053;SDS011;23859;50.672;7.164;2023-11-21T02:01:59;962.00;;;894.83;;
38053;SDS011;23859;50.672;7.164;2023-11-21T02:04:25;996.13;;;926.78;;
38053;SDS011;23859;50.672;7.164;2023-11-21T02:06:52;981.03;;;913.30;;
38053;SDS011;23859;50.672;7.164;2023-11-21T02:09:23;985.10;;;917.03;;
38053;SDS011;23859;50.672;7.164;2023-11-21T02:11:54;978.42;;;910.20;;
38053;SDS011;23859;50.672;7.164;2023-11-21T02:14:21;958.22;;;892.22;;
38053;SDS011;23859;50.672;7.164;2023-11-21T02:16:50;974.22;;;904.38;;
38053;SDS011;23859;50.672;7.164;2023-11-21T02:19:18;953.00;;;886.95;;
38053;SDS011;23859;50.672;7.164;2023-11-21T02:21:47;963.25;;;898.00;;
38053;SDS011;23859;50.672;7.164;2023-11-21T02:24:15;950.55;;;885.08;;
38053;SDS011;23859;50.672;7.164;2023-11-21T02:26:42;979.05;;;910.67;;
38053;SDS011;23859;50.672;7.164;2023-11-21T02:29:09;991.85;;;923.75;;
38053;SDS011;23859;50.672;7.164;2023-11-21T02:31:36;952.15;;;885.85;;
38053;SDS011;23859;50.672;7.164;2023-11-21T02:34:10;994.97;;;924.92;;
38053;SDS011;23859;50.672;7.164;2023-11-21T02:36:38;965.63;;;897.15;;
38053;SDS011;23859;50.672;7.164;2023-11-21T02:39:04;983.72;;;915.42;;
38053;SDS011;23859;50.672;7.164;2023-11-21T02:41:32;960.50;;;895.58;;
38053;SDS011;23859;50.672;7.164;2023-11-21T02:43:59;972.10;;;904.30;;
38053;SDS011;23859;50.672;7.164;2023-11-21T02:46:25;971.20;;;905.20;;
38053;SDS011;23859;50.672;7.164;2023-11-21T02:48:52;967.85;;;901.20;;
38053;SDS011;23859;50.672;7.164;2023-11-21T02:51:21;961.58;;;894.35;;
38053;SDS011;23859;50.672;7.164;2023-11-21T02:53:47;964.97;;;899.60;;
38053;SDS011;23859;50.672;7.164;2023-11-21T02:56:14;965.78;;;897.95;;
38053;SDS011;23859;50.672;7.164;2023-11-21T02:58:43;976.30;;;906.72;;
38053;SDS011;23859;50.672;7.164;2023-11-21T03:01:10;976.10;;;907.97;;
38053;SDS011;23859;50.672;7.164;2023-11-21T03:03:36;996.50;;;929.28;;
38053;SDS011;23859;50.672;7.164;2023-11-21T03:06:05;957.33;;;889.97;;
38053;SDS011;23859;50.672;7.164;2023-11-21T03:08:31;986.85;;;917.08;;
38053;SDS011;23859;50.672;7.164;2023-11-21T03:10:58;988.05;;;920.13;;
38053;SDS011;23859;50.672;7.164;2023-11-21T03:13:24;983.58;;;915.00;;
38053;SDS011;23859;50.672;7.164;2023-11-21T03:15:50;985.63;;;918.53;;
38053;SDS011;23859;50.672;7.164;2023-11-21T03:18:16;959.75;;;892.50;;
38053;SDS011;23859;50.672;7.164;2023-11-21T03:20:43;1002.50;;;933.67;;
38053;SDS011;23859;50.672;7.164;2023-11-21T03:23:12;973.22;;;905.30;;
38053;SDS011;23859;50.672;7.164;2023-11-21T03:25:38;992.00;;;923.38;;
38053;SDS011;23859;50.672;7.164;2023-11-21T03:28:04;984.00;;;915.38;;
38053;SDS011;23859;50.672;7.164;2023-11-21T03:30:30;991.00;;;921.28;;
38053;SDS011;23859;50.672;7.164;2023-11-21T03:32:56;1008.92;;;938.03;;
38053;SDS011;23859;50.672;7.164;2023-11-21T03:35:22;965.08;;;898.85;;
38053;SDS011;23859;50.672;7.164;2023-11-21T03:37:49;979.72;;;911.50;;
38053;SDS011;23859;50.672;7.164;2023-11-21T03:40:15;1004.03;;;933.72;;
38053;SDS011;23859;50.672;7.164;2023-11-21T03:42:41;986.08;;;919.63;;
38053;SDS011;23859;50.672;7.164;2023-11-21T03:45:08;944.80;;;879.58;;
38053;SDS011;23859;50.672;7.164;2023-11-21T03:47:34;994.00;;;924.22;;
38053;SDS011;23859;50.672;7.164;2023-11-21T03:50:00;967.40;;;900.40;;
38053;SDS011;23859;50.672;7.164;2023-11-21T03:52:28;944.85;;;880.78;;
38053;SDS011;23859;50.672;7.164;2023-11-21T03:54:54;983.35;;;913.58;;
38053;SDS011;23859;50.672;7.164;2023-11-21T03:57:21;1003.90;;;933.97;;
38053;SDS011;23859;50.672;7.164;2023-11-21T03:59:47;1020.25;;;947.17;;
38053;SDS011;23859;50.672;7.164;2023-11-21T04:02:13;1007.70;;;939.33;;
38053;SDS011;23859;50.672;7.164;2023-11-21T04:04:39;961.03;;;895.35;;
38053;SDS011;23859;50.672;7.164;2023-11-21T04:07:05;946.33;;;880.63;;
38053;SDS011;23859;50.672;7.164;2023-11-21T04:09:31;956.00;;;890.22;;
38053;SDS011;23859;50.672;7.164;2023-11-21T04:11:57;957.28;;;890.90;;
38053;SDS011;23859;50.672;7.164;2023-11-21T04:14:23;935.78;;;871.05;;
38053;SDS011;23859;50.672;7.164;2023-11-21T04:16:49;935.42;;;870.40;;
38053;SDS011;23859;50.672;7.164;2023-11-21T04:19:16;970.75;;;903.33;;
38053;SDS011;23859;50.672;7.164;2023-11-21T04:21:42;972.58;;;906.45;;
38053;SDS011;23859;50.672;7.164;2023-11-21T04:24:08;949.58;;;884.03;;
38053;SDS011;23859;50.672;7.164;2023-11-21T04:26:34;940.05;;;875.28;;
38053;SDS011;23859;50.672;7.164;2023-11-21T04:29:00;927.85;;;866.10;;
38053;SDS011;23859;50.672;7.164;2023-11-21T04:31:26;946.20;;;879.25;;
38053;SDS011;23859;50.672;7.164;2023-11-21T04:33:52;967.08;;;901.60;;
38053;SDS011;23859;50.672;7.164;2023-11-21T04:36:18;991.28;;;922.75;;
38053;SDS011;23859;50.672;7.164;2023-11-21T04:38:44;980.92;;;911.25;;
38053;SDS011;23859;50.672;7.164;2023-11-21T04:41:11;976.60;;;906.85;;
38053;SDS011;23859;50.672;7.164;2023-11-21T04:43:37;983.53;;;912.47;;
38053;SDS011;23859;50.672;7.164;2023-11-21T04:46:03;962.25;;;895.88;;
38053;SDS011;23859;50.672;7.164;2023-11-21T04:48:29;947.78;;;882.70;;
38053;SDS011;23859;50.672;7.164;2023-11-21T04:50:55;954.00;;;889.15;;
38053;SDS011;23859;50.672;7.164;2023-11-21T04:53:21;956.70;;;888.50;;
38053;SDS011;23859;50.672;7.164;2023-11-21T04:55:47;957.60;;;890.72;;
38053;SDS011;23859;50.672;7.164;2023-11-21T04:58:13;976.38;;;909.83;;
38053;SDS011;23859;50.672;7.164;2023-11-21T05:00:39;973.13;;;905.75;;
38053;SDS011;23859;50.672;7.164;2023-11-21T05:03:06;994.47;;;923.30;;
38053;SDS011;23859;50.672;7.164;2023-11-21T05:05:33;988.03;;;918.42;;
38053;SDS011;23859;50.672;7.164;2023-11-21T05:07:59;968.28;;;900.47;;
38053;SDS011;23859;50.672;7.164;2023-11-21T05:10:26;1007.70;;;936.85;;
38053;SDS011;23859;50.672;7.164;2023-11-21T05:12:52;950.85;;;883.55;;
38053;SDS011;23859;50.672;7.164;2023-11-21T05:15:18;989.75;;;920.97;;
38053;SDS011;23859;50.672;7.164;2023-11-21T05:17:44;953.53;;;887.70;;
38053;SDS011;23859;50.672;7.164;2023-11-21T05:20:14;943.72;;;876.20;;
38053;SDS011;23859;50.672;7.164;2023-11-21T05:22:43;971.67;;;903.25;;
38053;SDS011;23859;50.672;7.164;2023-11-21T05:25:09;971.08;;;902.28;;
38053;SDS011;23859;50.672;7.164;2023-11-21T05:27:36;981.53;;;913.25;;
38053;SDS011;23859;50.672;7.164;2023-11-21T05:30:03;996.90;;;924.72;;
38053;SDS011;23859;50.672;7.164;2023-11-21T05:32:30;992.58;;;921.38;;
38053;SDS011;23859;50.672;7.164;2023-11-21T05:34:57;1010.88;;;938.67;;
38053;SDS011;23859;50.672;7.164;2023-11-21T05:37:24;978.65;;;908.72;;
38053;SDS011;23859;50.672;7.164;2023-11-21T05:39:52;1015.10;;;943.50;;
38053;SDS011;23859;50.672;7.164;2023-11-21T05:42:21;1009.45;;;938.42;;
38053;SDS011;23859;50.672;7.164;2023-11-21T05:44:48;1021.30;;;948.72;;
38053;SDS011;23859;50.672;7.164;2023-11-21T05:47:14;989.33;;;919.83;;
38053;SDS011;23859;50.672;7.164;2023-11-21T05:49:40;986.50;;;916.95;;
38053;SDS011;23859;50.672;7.164;2023-11-21T05:52:07;983.85;;;913.92;;
38053;SDS011;23859;50.672;7.164;2023-11-21T05:54:33;989.20;;;919.40;;
38053;SDS011;23859;50.672;7.164;2023-11-21T05:56:59;980.38;;;910.47;;
38053;SDS011;23859;50.672;7.164;2023-11-21T05:59:25;981.78;;;913.55;;
38053;SDS011;23859;50.672;7.164;2023-11-21T06:01:51;994.97;;;924.72;;
38053;SDS011;23859;50.672;7.164;2023-11-21T06:04:18;1009.67;;;933.97;;
38053;SDS011;23859;50.672;7.164;2023-11-21T06:06:48;973.97;;;903.58;;
38053;SDS011;23859;50.672;7.164;2023-11-21T06:09:15;977.72;;;906.72;;
38053;SDS011;23859;50.672;7.164;2023-11-21T06:11:41;1004.10;;;931.17;;
38053;SDS011;23859;50.672;7.164;2023-11-21T06:14:07;1008.42;;;933.25;;
38053;SDS011;23859;50.672;7.164;2023-11-21T06:16:34;1012.25;;;937.92;;
38053;SDS011;23859;50.672;7.164;2023-11-21T06:19:00;987.60;;;916.70;;
38053;SDS011;23859;50.672;7.164;2023-11-21T06:21:26;994.45;;;924.28;;
38053;SDS011;23859;50.672;7.164;2023-11-21T06:23:52;1003.42;;;931.33;;
38053;SDS011;23859;50.672;7.164;2023-11-21T06:26:18;1037.18;;;962.90;;
38053;SDS011;23859;50.672;7.164;2023-11-21T06:28:45;983.03;;;910.92;;
38053;SDS011;23859;50.672;7.164;2023-11-21T06:31:11;993.15;;;923.30;;
38053;SDS011;23859;50.672;7.164;2023-11-21T06:33:37;1031.35;;;956.38;;
38053;SDS011;23859;50.672;7.164;2023-11-21T06:36:03;1010.30;;;936.42;;
38053;SDS011;23859;50.672;7.164;2023-11-21T06:38:31;1017.97;;;945.70;;
38053;SDS011;23859;50.672;7.164;2023-11-21T06:40:57;1031.88;;;956.08;;
38053;SDS011;23859;50.672;7.164;2023-11-21T06:43:23;1021.70;;;947.20;;
38053;SDS011;23859;50.672;7.164;2023-11-21T06:45:49;1028.55;;;953.38;;
38053;SDS011;23859;50.672;7.164;2023-11-21T06:48:15;1056.15;;;977.35;;
38053;SDS011;23859;50.672;7.164;2023-11-21T06:50:41;1029.85;;;954.50;;
38053;SDS011;23859;50.672;7.164;2023-11-21T06:53:08;1018.50;;;945.45;;
38053;SDS011;23859;50.672;7.164;2023-11-21T06:55:34;1009.67;;;937.60;;
38053;SDS011;23859;50.672;7.164;2023-11-21T06:58:00;993.55;;;922.08;;
38053;SDS011;23859;50.672;7.164;2023-11-21T07:00:26;990.42;;;920.70;;
38053;SDS011;23859;50.672;7.164;2023-11-21T07:02:53;1003.63;;;931.75;;
38053;SDS011;23859;50.672;7.164;2023-11-21T07:05:20;994.67;;;922.75;;
38053;SDS011;23859;50.672;7.164;2023-11-21T07:07:47;1007.03;;;935.13;;
38053;SDS011;23859;50.672;7.164;2023-11-21T07:10:14;954.92;;;886.97;;
38053;SDS011;23859;50.672;7.164;2023-11-21T07:12:40;954.00;;;886.58;;
38053;SDS011;23859;50.672;7.164;2023-11-21T07:15:07;976.83;;;906.65;;
38053;SDS011;23859;50.672;7.164;2023-11-21T07:17:36;965.28;;;896.15;;
38053;SDS011;23859;50.672;7.164;2023-11-21T07:20:02;978.10;;;907.67;;
38053;SDS011;23859;50.672;7.164;2023-11-21T07:22:29;980.67;;;912.72;;
38053;SDS011;23859;50.672;7.164;2023-11-21T07:24:55;929.88;;;862.60;;
38053;SDS011;23859;50.672;7.164;2023-11-21T07:27:21;963.55;;;894.70;;
38053;SDS011;23859;50.672;7.164;2023-11-21T07:29:48;973.70;;;903.85;;
38053;SDS011;23859;50.672;7.164;2023-11-21T07:32:14;972.42;;;903.47;;
38053;SDS011;23859;50.672;7.164;2023-11-21T07:34:41;1003.67;;;930.08;;
38053;SDS011;23859;50.672;7.164;2023-11-21T07:37:07;983.70;;;912.17;;
38053;SDS011;23859;50.672;7.164;2023-11-21T07:39:36;992.00;;;922.08;;
38053;SDS011;23859;50.672;7.164;2023-11-21T07:42:06;1009.72;;;937.53;;
38053;SDS011;23859;50.672;7.164;2023-11-21T07:44:32;973.10;;;901.83;;
38053;SDS011;23859;50.672;7.164;2023-11-21T07:46:58;1040.55;;;964.67;;
38053;SDS011;23859;50.672;7.164;2023-11-21T07:49:25;976.25;;;907.20;;
38053;SDS011;23859;50.672;7.164;2023-11-21T07:51:51;1014.00;;;941.30;;
38053;SDS011;23859;50.672;7.164;2023-11-21T07:54:17;1006.97;;;934.25;;
38053;SDS011;23859;50.672;7.164;2023-11-21T07:56:43;978.97;;;908.40;;
38053;SDS011;23859;50.672;7.164;2023-11-21T07:59:10;954.40;;;888.33;;
38053;SDS011;23859;50.672;7.164;2023-11-21T08:01:37;878.38;;;818.00;;
38053;SDS011;23859;50.672;7.164;2023-11-21T08:04:05;901.75;;;839.22;;
38053;SDS011;23859;50.672;7.164;2023-11-21T08:06:31;920.92;;;857.33;;
38053;SDS011;23859;50.672;7.164;2023-11-21T08:08:58;958.72;;;891.45;;
38053;SDS011;23859;50.672;7.164;2023-11-21T08:11:24;905.30;;;842.47;;
38053;SDS011;23859;50.672;7.164;2023-11-21T08:13:56;946.83;;;879.85;;
38053;SDS011;23859;50.672;7.164;2023-11-21T08:16:24;965.40;;;895.58;;
38053;SDS011;23859;50.672;7.164;2023-11-21T08:18:50;948.45;;;881.05;;
38053;SDS011;23859;50.672;7.164;2023-11-21T08:21:16;996.97;;;926.22;;
38053;SDS011;23859;50.672;7.164;2023-11-21T08:23:42;943.00;;;875.65;;
38053;SDS011;23859;50.672;7.164;2023-11-21T08:26:08;999.25;;;928.70;;
38053;SDS011;23859;50.672;7.164;2023-11-21T08:28:34;977.13;;;906.90;;
38053;SDS011;23859;50.672;7.164;2023-11-21T08:31:01;1015.92;;;941.35;;
38053;SDS011;23859;50.672;7.164;2023-11-21T08:33:27;1019.65;;;945.78;;
38053;SDS011;23859;50.672;7.164;2023-11-21T08:35:53;1016.55;;;941.33;;
38053;SDS011;23859;50.672;7.164;2023-11-21T08:38:19;1036.60;;;958.88;;
38053;SDS011;23859;50.672;7.164;2023-11-21T08:40:45;1054.28;;;976.38;;
38053;SDS011;23859;50.672;7.164;2023-11-21T08:43:11;1048.60;;;968.92;;
38053;SDS011;23859;50.672;7.164;2023-11-21T08:45:39;1054.75;;;976.95;;
38053;SDS011;23859;50.672;7.164;2023-11-21T08:48:05;1025.93;;;949.25;;
38053;SDS011;23859;50.672;7.164;2023-11-21T08:50:32;981.30;;;911.28;;
38053;SDS011;23859;50.672;7.164;2023-11-21T08:52:59;1029.60;;;953.42;;
38053;SDS011;23859;50.672;7.164;2023-11-21T08:55:25;995.65;;;923.17;;
38053;SDS011;23859;50.672;7.164;2023-11-21T08:57:52;1018.47;;;943.22;;
38053;SDS011;23859;50.672;7.164;2023-11-21T09:00:18;1034.43;;;960.85;;
38053;SDS011;23859;50.672;7.164;2023-11-21T09:02:44;969.58;;;897.35;;
38053;SDS011;23859;50.672;7.164;2023-11-21T09:05:11;1002.20;;;930.67;;
38053;SDS011;23859;50.672;7.164;2023-11-21T09:07:38;974.28;;;902.47;;
38053;SDS011;23859;50.672;7.164;2023-11-21T09:10:08;984.67;;;914.72;;
38053;SDS011;23859;50.672;7.164;2023-11-21T09:12:35;1010.78;;;936.90;;
38053;SDS011;23859;50.672;7.164;2023-11-21T09:15:03;993.63;;;919.97;;
38053;SDS011;23859;50.672;7.164;2023-11-21T09:17:30;1022.00;;;946.53;;
38053;SDS011;23859;50.672;7.164;2023-11-21T09:19:59;962.85;;;893.80;;
38053;SDS011;23859;50.672;7.164;2023-11-21T09:22:28;962.80;;;893.75;;
38053;SDS011;23859;50.672;7.164;2023-11-21T09:24:54;983.63;;;911.35;;
38053;SDS011;23859;50.672;7.164;2023-11-21T09:27:22;1004.15;;;931.42;;
38053;SDS011;23859;50.672;7.164;2023-11-21T09:29:48;975.95;;;906.10;;
38053;SDS011;23859;50.672;7.164;2023-11-21T09:32:15;998.80;;;925.20;;
38053;SDS011;23859;50.672;7.164;2023-11-21T09:34:41;963.78;;;893.47;;
38053;SDS011;23859;50.672;7.164;2023-11-21T09:37:07;1016.90;;;943.80;;
38053;SDS011;23859;50.672;7.164;2023-11-21T09:39:34;984.50;;;913.72;;
38053;SDS011;23859;50.672;7.164;2023-11-21T09:44:38;1004.30;;;931.67;;
38053;SDS011;23859;50.672;7.164;2023-11-21T09:47:28;971.13;;;899.13;;
38053;SDS011;23859;50.672;7.164;2023-11-21T09:49:54;991.58;;;918.78;;
38053;SDS011;23859;50.672;7.164;2023-11-21T09:52:26;943.60;;;876.00;;
38053;SDS011;23859;50.672;7.164;2023-11-21T09:54:54;1005.00;;;932.92;;
38053;SDS011;23859;50.672;7.164;2023-11-21T09:57:23;992.40;;;920.55;;
38053;SDS011;23859;50.672;7.164;2023-11-21T09:59:53;964.33;;;896.75;;
38053;SDS011;23859;50.672;7.164;2023-11-21T10:02:27;955.28;;;885.85;;
38053;SDS011;23859;50.672;7.164;2023-11-21T10:04:55;957.78;;;889.53;;
38053;SDS011;23859;50.672;7.164;2023-11-21T10:07:22;976.58;;;903.53;;
38053;SDS011;23859;50.672;7.164;2023-11-21T10:09:49;998.53;;;925.78;;
38053;SDS011;23859;50.672;7.164;2023-11-21T10:12:18;932.55;;;865.80;;
38053;SDS011;23859;50.672;7.164;2023-11-21T10:14:47;969.60;;;899.33;;
38053;SDS011;23859;50.672;7.164;2023-11-21T10:17:17;973.53;;;902.70;;
38053;SDS011;23859;50.672;7.164;2023-11-21T10:19:46;949.47;;;879.83;;
38053;SDS011;23859;50.672;7.164;2023-11-21T10:22:15;987.47;;;915.65;;
38053;SDS011;23859;50.672;7.164;2023-11-21T10:24:42;988.42;;;917.03;;
38053;SDS011;23859;50.672;7.164;2023-11-21T10:27:08;1000.95;;;927.58;;
38053;SDS011;23859;50.672;7.164;2023-11-21T10:29:34;990.55;;;917.28;;
38053;SDS011;23859;50.672;7.164;2023-11-21T10:32:04;940.70;;;872.20;;
38053;SDS011;23859;50.672;7.164;2023-11-21T10:34:30;999.55;;;924.53;;
38053;SDS011;23859;50.672;7.164;2023-11-21T10:36:56;1084.70;;;999.90;;
38053;SDS011;23859;50.672;7.164;2023-11-21T10:39:23;1092.63;;;999.90;;
38053;SDS011;23859;50.672;7.164;2023-11-21T10:41:54;962.03;;;894.42;;
38053;SDS011;23859;50.672;7.164;2023-11-21T10:44:20;985.70;;;915.17;;
38053;SDS011;23859;50.672;7.164;2023-11-21T10:46:52;1176.30;;;999.90;;
38053;SDS011;23859;50.672;7.164;2023-11-21T10:49:27;1156.65;;;999.90;;
38053;SDS011;23859;50.672;7.164;2023-11-21T10:51:53;1140.57;;;999.90;;
38053;SDS011;23859;50.672;7.164;2023-11-21T10:54:21;1171.82;;;999.90;;
38053;SDS011;23859;50.672;7.164;2023-11-21T10:56:49;1178.65;;;999.90;;
38053;SDS011;23859;50.672;7.164;2023-11-21T10:59:17;1126.50;;;999.90;;
38053;SDS011;23859;50.672;7.164;2023-11-21T11:01:45;1161.13;;;999.90;;
38053;SDS011;23859;50.672;7.164;2023-11-21T11:04:15;1163.32;;;999.90;;
38053;SDS011;23859;50.672;7.164;2023-11-21T11:06:44;1136.25;;;999.90;;
38053;SDS011;23859;50.672;7.164;2023-11-21T11:09:19;1141.88;;;999.90;;
38053;SDS011;23859;50.672;7.164;2023-11-21T11:11:46;1231.70;;;999.90;;
38053;SDS011;23859;50.672;7.164;2023-11-21T11:14:13;1219.10;;;999.90;;
38053;SDS011;23859;50.672;7.164;2023-11-21T11:16:41;1234.72;;;999.90;;
38053;SDS011;23859;50.672;7.164;2023-11-21T11:19:08;1219.63;;;999.90;;
38053;SDS011;23859;50.672;7.164;2023-11-21T11:21:47;1228.55;;;999.90;;
38053;SDS011;23859;50.672;7.164;2023-11-21T11:30:12;1221.82;;;999.90;;
38053;SDS011;23859;50.672;7.164;2023-11-21T11:37:58;1236.28;;;999.90;;
38053;SDS011;23859;50.672;7.164;2023-11-21T11:40:32;1247.20;;;999.90;;
38053;SDS011;23859;50.672;7.164;2023-11-21T11:43:10;1225.13;;;999.90;;
38053;SDS011;23859;50.672;7.164;2023-11-21T11:45:36;1181.68;;;999.90;;
38053;SDS011;23859;50.672;7.164;2023-11-21T11:48:07;1230.53;;;999.90;;
38053;SDS011;23859;50.672;7.164;2023-11-21T11:50:38;1216.72;;;999.90;;
38053;SDS011;23859;50.672;7.164;2023-11-21T11:53:28;1216.03;;;999.90;;
38053;SDS011;23859;50.672;7.164;2023-11-21T11:58:47;1183.00;;;999.90;;
38053;SDS011;23859;50.672;7.164;2023-11-21T12:01:21;1203.18;;;999.90;;
38053;SDS011;23859;50.672;7.164;2023-11-21T12:06:40;1196.85;;;999.90;;
38053;SDS011;23859;50.672;7.164;2023-11-21T12:09:10;1158.30;;;999.90;;
38053;SDS011;23859;50.672;7.164;2023-11-21T12:11:43;1170.45;;;999.90;;
38053;SDS011;23859;50.672;7.164;2023-11-21T12:14:13;1193.15;;;999.90;;
38053;SDS011;23859;50.672;7.164;2023-11-21T12:16:40;1217.20;;;999.90;;
38053;SDS011;23859;50.672;7.164;2023-11-21T12:19:08;1213.38;;;999.90;;
38053;SDS011;23859;50.672;7.164;2023-11-21T12:21:35;1206.22;;;999.90;;
38053;SDS011;23859;50.672;7.164;2023-11-21T12:24:02;1204.93;;;999.90;;
38053;SDS011;23859;50.672;7.164;2023-11-21T12:26:29;1205.00;;;999.90;;
38053;SDS011;23859;50.672;7.164;2023-11-21T12:28:55;1211.50;;;999.90;;
38053;SDS011;23859;50.672;7.164;2023-11-21T12:31:21;1204.10;;;999.90;;
38053;SDS011;23859;50.672;7.164;2023-11-21T12:33:48;1177.95;;;999.90;;
38053;SDS011;23859;50.672;7.164;2023-11-21T12:36:14;1231.18;;;999.90;;
38053;SDS011;23859;50.672;7.164;2023-11-21T12:38:41;1222.80;;;999.90;;
38053;SDS011;23859;50.672;7.164;2023-11-21T12:41:07;1261.50;;;999.90;;
38053;SDS011;23859;50.672;7.164;2023-11-21T12:43:37;1235.45;;;999.90;;
38053;SDS011;23859;50.672;7.164;2023-11-21T12:46:06;1246.25;;;999.90;;
38053;SDS011;23859;50.672;7.164;2023-11-21T12:48:34;1254.95;;;999.90;;
38053;SDS011;23859;50.672;7.164;2023-11-21T12:51:09;1225.85;;;999.90;;
38053;SDS011;23859;50.672;7.164;2023-11-21T12:53:43;1232.25;;;999.90;;
38053;SDS011;23859;50.672;7.164;2023-11-21T12:56:10;1218.07;;;999.90;;
38053;SDS011;23859;50.672;7.164;2023-11-21T12:58:37;1244.43;;;999.90;;
38053;SDS011;23859;50.672;7.164;2023-11-21T13:01:04;1227.20;;;999.90;;
38053;SDS011;23859;50.672;7.164;2023-11-21T13:03:36;1221.40;;;999.90;;
38053;SDS011;23859;50.672;7.164;2023-11-21T13:06:04;1228.20;;;999.90;;
38053;SDS011;23859;50.672;7.164;2023-11-21T13:08:32;1189.88;;;999.90;;
38053;SDS011;23859;50.672;7.164;2023-11-21T13:10:59;1212.65;;;999.90;;
38053;SDS011;23859;50.672;7.164;2023-11-21T13:13:26;1217.00;;;999.90;;
38053;SDS011;23859;50.672;7.164;2023-11-21T13:15:55;1206.30;;;999.90;;
38053;SDS011;23859;50.672;7.164;2023-11-21T13:18:25;1245.07;;;999.90;;
38053;SDS011;23859;50.672;7.164;2023-11-21T13:20:53;1224.53;;;999.90;;
38053;SDS011;23859;50.672;7.164;2023-11-21T13:23:20;1192.40;;;999.90;;
38053;SDS011;23859;50.672;7.164;2023-11-21T13:25:47;1205.47;;;999.90;;
38053;SDS011;23859;50.672;7.164;2023-11-21T13:28:15;1207.50;;;999.90;;
38053;SDS011;23859;50.672;7.164;2023-11-21T13:30:43;1244.72;;;999.90;;
38053;SDS011;23859;50.672;7.164;2023-11-21T13:33:09;1224.55;;;999.90;;
38053;SDS011;23859;50.672;7.164;2023-11-21T13:35:42;1167.03;;;999.90;;
38053;SDS011;23859;50.672;7.164;2023-11-21T13:38:15;1191.18;;;999.90;;
38053;SDS011;23859;50.672;7.164;2023-11-21T13:40:46;1206.03;;;999.90;;
38053;SDS011;23859;50.672;7.164;2023-11-21T13:43:14;1228.30;;;999.90;;
38053;SDS011;23859;50.672;7.164;2023-11-21T13:45:58;1215.50;;;999.90;;
38053;SDS011;23859;50.672;7.164;2023-11-21T13:48:28;1210.22;;;999.90;;
38053;SDS011;23859;50.672;7.164;2023-11-21T13:51:02;1200.07;;;999.90;;
38053;SDS011;23859;50.672;7.164;2023-11-21T13:53:43;1179.18;;;999.90;;
38053;SDS011;23859;50.672;7.164;2023-11-21T13:56:10;1192.05;;;999.90;;
38053;SDS011;23859;50.672;7.164;2023-11-21T13:58:38;804.90;;;751.50;;
38053;SDS011;23859;50.672;7.164;2023-11-21T14:01:15;828.83;;;774.63;;
38053;SDS011;23859;50.672;7.164;2023-11-21T14:04:07;834.25;;;777.22;;
38053;SDS011;23859;50.672;7.164;2023-11-21T14:06:42;788.78;;;737.45;;
38053;SDS011;23859;50.672;7.164;2023-11-21T14:14:18;864.13;;;805.92;;
38053;SDS011;23859;50.672;7.164;2023-11-21T14:16:45;827.50;;;772.70;;
38053;SDS011;23859;50.672;7.164;2023-11-21T14:19:11;803.58;;;748.95;;